createdAt,value
2019-03-17T11:25:37.639Z,56.55
2019-03-17T11:26:37.624Z,56.88
2019-03-17T11:27:37.605Z,57.26
2019-03-17T11:28:37.597Z,56.22
2019-03-17T11:29:37.583Z,55.58
2019-03-17T11:30:37.572Z,54.90
2019-03-17T11:31:37.602Z,53.96
2019-03-17T11:32:37.562Z,53.19
2019-03-17T11:33:37.537Z,52.05
2019-03-17T11:34:37.526Z,52.12
2019-03-17T11:35:37.515Z,51.09
2019-03-17T11:36:37.512Z,50.76
2019-03-17T11:37:37.494Z,50.84
2019-03-17T11:38:37.481Z,49.19
2019-03-17T11:39:38.265Z,47.26
2019-03-17T11:40:37.459Z,47.44
2019-03-17T11:41:37.457Z,47.03
2019-03-17T11:42:37.439Z,47.46
2019-03-17T11:43:37.427Z,47.34
2019-03-17T11:44:37.415Z,47.03
2019-03-17T11:45:37.402Z,47.11
2019-03-17T11:46:37.405Z,47.02
2019-03-17T11:47:37.380Z,46.89
2019-03-17T11:48:37.369Z,46.97
2019-03-17T11:49:37.361Z,47.05
2019-03-17T11:50:37.348Z,46.12
2019-03-17T11:51:37.347Z,45.91
2019-03-17T11:52:37.335Z,44.56
2019-03-17T11:53:37.315Z,44.32
2019-03-17T11:54:37.305Z,44.44
2019-03-17T11:55:37.299Z,43.98
2019-03-17T11:56:37.296Z,44.81
2019-03-17T11:57:37.272Z,44.60
2019-03-17T11:58:37.262Z,44.70
2019-03-17T11:59:37.250Z,45.84
2019-03-17T12:00:37.239Z,45.43
2019-03-17T12:01:37.244Z,44.62
2019-03-17T12:02:37.219Z,45.37
2019-03-17T12:03:37.206Z,43.85
2019-03-17T12:04:37.209Z,43.38
2019-03-17T12:05:37.183Z,44.52
2019-03-17T12:06:37.188Z,43.53
2019-03-17T12:07:37.162Z,44.97
2019-03-17T12:08:37.152Z,44.30
2019-03-17T12:09:49.277Z,44.81
2019-03-17T12:10:38.132Z,45.44
2019-03-17T12:11:37.119Z,45.03
2019-03-17T12:12:37.119Z,45.83
2019-03-17T12:13:37.100Z,44.73
2019-03-17T12:14:37.086Z,46.78
2019-03-17T12:15:37.073Z,46.89
2019-03-17T12:16:37.067Z,46.98
2019-03-17T12:17:37.063Z,46.81
2019-03-17T12:18:37.042Z,46.70
2019-03-17T12:19:37.032Z,46.81
2019-03-17T12:20:37.017Z,46.72
2019-03-17T12:21:37.005Z,46.60
2019-03-17T12:22:37.010Z,47.31
2019-03-17T12:23:36.984Z,48.43
2019-03-17T12:24:36.973Z,47.58
2019-03-17T12:25:36.962Z,45.21
2019-03-17T12:26:36.951Z,45.48
2019-03-17T12:27:36.950Z,44.22
2019-03-17T12:28:36.931Z,42.15
2019-03-17T12:29:36.920Z,41.89
2019-03-17T12:30:36.909Z,41.36
2019-03-17T12:31:36.895Z,40.44
2019-03-17T12:32:36.892Z,40.77
2019-03-17T12:33:36.880Z,41.28
2019-03-17T12:34:36.862Z,41.75
2019-03-17T12:35:36.850Z,40.35
2019-03-17T12:36:36.842Z,41.71
2019-03-17T12:37:36.838Z,42.15
2019-03-17T12:38:36.817Z,42.23
2019-03-17T12:39:36.805Z,42.17
2019-03-17T12:40:36.793Z,44.44
2019-03-17T12:41:38.359Z,44.77
2019-03-17T12:42:36.779Z,45.50
2019-03-17T12:43:36.764Z,46.13
2019-03-17T12:44:36.753Z,46.66
2019-03-17T12:45:36.741Z,47.19
2019-03-17T12:46:36.728Z,47.42
2019-03-17T12:47:37.554Z,47.31
2019-03-17T12:48:36.707Z,48.15
2019-03-17T12:49:36.696Z,50.49
2019-03-17T12:50:36.681Z,50.92
2019-03-17T12:51:36.670Z,50.95
2019-03-17T12:52:36.674Z,52.60
2019-03-17T12:53:36.648Z,53.34
2019-03-17T12:54:36.636Z,53.19
2019-03-17T12:55:36.627Z,52.33
2019-03-17T12:56:36.618Z,51.64
2019-03-17T12:57:36.612Z,49.36
2019-03-17T12:58:36.591Z,49.74
2019-03-17T12:59:36.581Z,48.91
2019-03-17T13:00:36.569Z,47.36
2019-03-17T13:01:36.558Z,47.44
2019-03-17T13:02:36.595Z,47.70
2019-03-17T13:03:36.542Z,46.89
2019-03-17T13:04:36.536Z,47.07
2019-03-17T13:05:36.515Z,45.03
2019-03-17T13:06:36.505Z,44.82
2019-03-17T13:07:36.510Z,44.72
2019-03-17T13:08:36.483Z,43.71
2019-03-17T13:09:36.471Z,42.49
2019-03-17T13:10:36.459Z,43.43
2019-03-17T13:11:36.451Z,43.10
2019-03-17T13:12:36.447Z,42.11
2019-03-17T13:13:36.426Z,44.24
2019-03-17T13:14:36.414Z,45.04
2019-03-17T13:15:36.404Z,46.24
2019-03-17T13:16:36.395Z,46.87
2019-03-17T13:17:36.391Z,46.79
2019-03-17T13:18:36.372Z,46.73
2019-03-17T13:19:36.361Z,47.24
2019-03-17T13:20:36.351Z,47.97
2019-03-17T13:21:36.343Z,47.46
2019-03-17T13:22:36.339Z,47.95
2019-03-17T13:23:36.318Z,47.03
2019-03-17T13:24:36.307Z,47.97
2019-03-17T13:25:36.294Z,48.07
2019-03-17T13:26:36.286Z,48.15
2019-03-17T13:27:36.273Z,48.48
2019-03-17T13:28:36.268Z,48.07
2019-03-17T13:29:36.249Z,48.96
2019-03-17T13:30:36.240Z,48.48
2019-03-17T13:31:36.226Z,48.78
2019-03-17T13:32:36.215Z,47.26
2019-03-17T13:33:36.213Z,47.56
2019-03-17T13:34:36.192Z,49.49
2019-03-17T13:35:36.182Z,48.66
2019-03-17T13:36:36.169Z,48.54
2019-03-17T13:37:36.156Z,48.82
2019-03-17T13:38:36.156Z,47.25
2019-03-17T13:39:36.137Z,46.83
2019-03-17T13:40:36.124Z,44.60
2019-03-17T13:41:36.112Z,44.80
2019-03-17T13:42:36.104Z,44.42
2019-03-17T13:43:36.100Z,45.19
2019-03-17T13:44:36.102Z,46.94
2019-03-17T13:45:36.068Z,46.98
2019-03-17T13:46:36.061Z,48.63
2019-03-17T13:47:36.054Z,48.65
2019-03-17T13:48:36.043Z,48.97
2019-03-17T13:49:36.026Z,49.43
2019-03-17T13:50:36.015Z,50.95
2019-03-17T13:51:36.002Z,50.16
2019-03-17T13:52:35.992Z,50.72
2019-03-17T13:53:35.988Z,51.03
2019-03-17T13:54:35.969Z,51.23
2019-03-17T13:55:35.957Z,51.97
2019-03-17T13:56:35.946Z,52.91
2019-03-17T13:57:35.935Z,53.42
2019-03-17T13:58:35.931Z,53.55
2019-03-17T13:59:35.914Z,54.46
2019-03-17T14:00:35.902Z,53.57
2019-03-17T14:01:35.899Z,54.18
2019-03-17T14:02:35.877Z,54.90
2019-03-17T14:03:35.878Z,54.82
2019-03-17T14:04:35.858Z,55.13
2019-03-17T14:05:35.846Z,55.51
2019-03-17T14:06:35.835Z,54.69
2019-03-17T14:07:35.821Z,52.09
2019-03-17T14:08:35.819Z,50.49
2019-03-17T14:09:35.804Z,49.30
2019-03-17T14:10:41.018Z,48.55
2019-03-17T14:11:36.777Z,47.00
2019-03-17T14:12:35.767Z,46.94
2019-03-17T14:13:35.762Z,45.19
2019-03-17T14:14:35.742Z,45.27
2019-03-17T14:15:35.737Z,44.44
2019-03-17T14:16:35.720Z,43.52
2019-03-17T14:17:35.709Z,42.11
2019-03-17T14:18:35.709Z,42.31
2019-03-17T14:19:35.687Z,43.73
2019-03-17T14:20:35.676Z,43.83
2019-03-17T14:21:35.666Z,42.11
2019-03-17T14:22:35.771Z,42.80
2019-03-17T14:23:35.678Z,42.52
2019-03-17T14:24:35.640Z,42.01
2019-03-17T14:25:35.623Z,43.35
2019-03-17T14:26:35.611Z,42.25
2019-03-17T14:27:35.599Z,41.74
2019-03-17T14:28:35.595Z,42.19
2019-03-17T14:29:35.574Z,42.11
2019-03-17T14:30:35.565Z,43.55
2019-03-17T14:31:35.567Z,42.84
2019-03-17T14:32:35.562Z,43.87
2019-03-17T14:33:35.541Z,43.90
2019-03-17T14:34:35.529Z,43.30
2019-03-17T14:35:35.577Z,44.54
2019-03-17T14:36:35.500Z,44.36
2019-03-17T14:37:35.487Z,44.79
2019-03-17T14:38:35.503Z,46.14
2019-03-17T14:39:35.470Z,47.46
2019-03-17T14:40:35.469Z,46.97
2019-03-17T14:41:35.453Z,46.26
2019-03-17T14:42:35.435Z,47.40
2019-03-17T14:43:35.445Z,47.42
2019-03-17T14:44:35.410Z,47.12
2019-03-17T14:45:35.398Z,48.42
2019-03-17T14:46:35.786Z,48.83
2019-03-17T14:47:35.375Z,49.87
2019-03-17T14:48:35.401Z,49.98
2019-03-17T14:49:35.369Z,49.13
2019-03-17T14:50:35.345Z,48.73
2019-03-17T14:51:35.415Z,49.57
2019-03-17T14:52:35.329Z,48.75
2019-03-17T14:53:35.335Z,48.44
2019-03-17T14:54:35.308Z,49.05
2019-03-17T14:55:35.284Z,49.69
2019-03-17T14:56:35.277Z,48.88
2019-03-17T14:57:35.281Z,49.18
2019-03-17T14:58:35.256Z,48.80
2019-03-17T14:59:35.264Z,49.71
2019-03-17T15:00:35.235Z,49.00
2019-03-17T15:01:35.221Z,50.96
2019-03-17T15:02:35.251Z,49.43
2019-03-17T15:03:35.219Z,49.46
2019-03-17T15:04:35.201Z,51.21
2019-03-17T15:05:35.178Z,51.42
2019-03-17T15:06:35.192Z,51.65
2019-03-17T15:07:35.167Z,51.95
2019-03-17T15:08:35.146Z,51.54
2019-03-17T15:09:35.140Z,51.88
2019-03-17T15:10:35.137Z,52.70
2019-03-17T15:11:35.119Z,52.31
2019-03-17T15:12:35.128Z,52.31
2019-03-17T15:13:35.084Z,52.92
2019-03-17T15:14:35.090Z,53.03
2019-03-17T15:15:35.063Z,53.85
2019-03-17T15:16:37.142Z,54.05
2019-03-17T15:17:35.059Z,55.69
2019-03-17T15:18:35.030Z,57.43
2019-03-17T15:19:35.027Z,58.38
2019-03-17T15:20:35.015Z,58.58
2019-03-17T15:21:35.001Z,60.42
2019-03-17T15:22:34.983Z,61.76
2019-03-17T15:23:34.989Z,63.15
2019-03-17T15:24:34.971Z,63.97
2019-03-17T15:25:34.950Z,64.72
2019-03-17T15:26:34.941Z,65.67
2019-03-17T15:27:34.930Z,65.80
2019-03-17T15:28:34.921Z,65.50
2019-03-17T15:29:34.916Z,66.25
2019-03-17T15:30:34.893Z,66.04
2019-03-17T15:31:34.890Z,66.55
2019-03-17T15:32:34.872Z,66.79
2019-03-17T15:33:34.863Z,67.61
2019-03-17T15:34:34.858Z,67.30
2019-03-17T15:35:34.837Z,68.13
2019-03-17T15:36:34.826Z,68.13
2019-03-17T15:37:34.820Z,67.10
2019-03-17T15:38:34.814Z,66.69
2019-03-17T15:39:34.805Z,66.89
2019-03-17T15:40:34.784Z,66.35
2019-03-17T15:41:34.771Z,67.27
2019-03-17T15:42:34.762Z,66.14
2019-03-17T15:43:34.751Z,65.83
2019-03-17T15:44:34.765Z,65.73
2019-03-17T15:45:34.726Z,65.94
2019-03-17T15:46:34.713Z,65.42
2019-03-17T15:47:34.707Z,65.01
2019-03-17T15:48:34.694Z,65.39
2019-03-17T15:49:34.690Z,64.70
2019-03-17T15:50:34.671Z,65.80
2019-03-17T15:51:34.667Z,64.50
2019-03-17T15:52:34.656Z,64.26
2019-03-17T15:53:34.634Z,64.26
2019-03-17T15:54:34.637Z,64.47
2019-03-17T15:55:34.614Z,64.37
2019-03-17T15:56:34.607Z,63.96
2019-03-17T15:57:34.594Z,63.68
2019-03-17T15:58:34.584Z,64.09
2019-03-17T15:59:34.579Z,64.16
2019-03-17T16:00:34.557Z,64.37
2019-03-17T16:01:34.546Z,64.19
2019-03-17T16:02:34.554Z,64.78
2019-03-17T16:03:34.529Z,65.09
2019-03-17T16:04:34.532Z,65.63
2019-03-17T16:05:34.503Z,65.22
2019-03-17T16:06:34.491Z,64.81
2019-03-17T16:07:42.277Z,63.78
2019-03-17T16:08:35.472Z,64.70
2019-03-17T16:09:34.466Z,64.40
2019-03-17T16:10:34.454Z,64.53
2019-03-17T16:11:34.440Z,63.50
2019-03-17T16:12:34.424Z,63.91
2019-03-17T16:13:34.413Z,63.91
2019-03-17T16:14:34.402Z,63.60
2019-03-17T16:15:34.400Z,64.25
2019-03-17T16:16:34.381Z,65.17
2019-03-17T16:17:34.369Z,64.36
2019-03-17T16:18:34.356Z,63.64
2019-03-17T16:19:34.346Z,63.53
2019-03-17T16:20:34.342Z,64.79
2019-03-17T16:21:34.335Z,65.28
2019-03-17T16:22:34.313Z,64.36
2019-03-17T16:23:34.299Z,64.79
2019-03-17T16:24:34.289Z,64.28
2019-03-17T16:25:34.288Z,63.46
2019-03-17T16:26:34.272Z,63.46
2019-03-17T16:27:34.309Z,64.28
2019-03-17T16:28:34.245Z,63.87
2019-03-17T16:29:34.285Z,63.69
2019-03-17T16:30:34.238Z,63.67
2019-03-17T16:31:34.213Z,64.51
2019-03-17T16:32:34.202Z,65.13
2019-03-17T16:33:34.189Z,65.13
2019-03-17T16:34:34.178Z,65.34
2019-03-17T16:35:34.180Z,65.13
2019-03-17T16:36:34.155Z,65.86
2019-03-17T16:37:34.146Z,64.83
2019-03-17T16:38:34.133Z,65.16
2019-03-17T16:39:34.123Z,65.75
2019-03-17T16:40:34.125Z,65.03
2019-03-17T16:41:43.000Z,65.03
2019-03-17T16:42:35.089Z,65.37
2019-03-17T16:43:34.081Z,65.16
2019-03-17T16:44:34.066Z,64.96
2019-03-17T16:45:34.071Z,64.31
2019-03-17T16:46:34.113Z,64.62
2019-03-17T16:47:34.032Z,64.72
2019-03-17T16:48:34.021Z,65.23
2019-03-17T16:49:34.029Z,65.34
2019-03-17T16:50:34.009Z,65.23
2019-03-17T16:51:33.988Z,64.93
2019-03-17T16:52:33.976Z,64.31
2019-03-17T16:53:33.965Z,63.35
2019-03-17T16:54:33.954Z,63.76
2019-03-17T16:55:33.953Z,64.07
2019-03-17T16:56:33.932Z,63.15
2019-03-17T16:57:33.921Z,63.25
2019-03-17T16:58:33.913Z,65.11
2019-03-17T16:59:33.900Z,65.31
2019-03-17T17:00:34.251Z,65.72
2019-03-17T17:01:33.880Z,64.18
2019-03-17T17:02:33.882Z,64.07
2019-03-17T17:03:33.870Z,63.79
2019-03-17T17:04:33.848Z,63.87
2019-03-17T17:05:35.203Z,65.00
2019-03-17T17:06:33.839Z,64.21
2019-03-17T17:07:33.838Z,64.11
2019-03-17T17:08:33.798Z,65.03
2019-03-17T17:09:33.789Z,64.83
2019-03-17T17:10:33.787Z,64.93
2019-03-17T17:11:33.766Z,65.68
2019-03-17T17:12:33.760Z,66.16
2019-03-17T17:13:33.747Z,65.44
2019-03-17T17:14:33.754Z,64.62
2019-03-17T17:15:33.732Z,64.39
2019-03-17T17:16:33.824Z,62.97
2019-03-17T17:17:33.699Z,62.87
2019-03-17T17:18:33.689Z,63.39
2019-03-17T17:19:33.682Z,62.87
2019-03-17T17:20:33.675Z,63.00
2019-03-17T17:21:33.658Z,62.59
2019-03-17T17:22:33.646Z,62.49
2019-03-17T17:23:33.632Z,63.03
2019-03-17T17:24:33.622Z,63.45
2019-03-17T17:25:33.623Z,63.85
2019-03-17T17:26:37.715Z,63.47
2019-03-17T17:27:33.588Z,63.65
2019-03-17T17:28:33.580Z,63.68
2019-03-17T17:29:33.563Z,64.40
2019-03-17T17:30:33.657Z,64.50
2019-03-17T17:31:33.554Z,64.40
2019-03-17T17:32:33.531Z,64.40
2019-03-17T17:33:33.533Z,64.29
2019-03-17T17:34:33.524Z,64.43
2019-03-17T17:35:33.503Z,64.53
2019-03-17T17:36:33.504Z,64.32
2019-03-17T17:37:33.500Z,64.84
2019-03-17T17:38:33.490Z,64.84
2019-03-17T17:39:33.464Z,64.84
2019-03-17T17:40:33.443Z,65.98
2019-03-17T17:41:33.443Z,65.36
2019-03-17T17:42:33.432Z,65.05
2019-03-17T17:43:33.414Z,65.36
2019-03-17T17:44:33.396Z,65.77
2019-03-17T17:45:33.389Z,65.25
2019-03-17T17:46:33.388Z,65.91
2019-03-17T17:47:33.368Z,65.77
2019-03-17T17:48:33.357Z,66.11
2019-03-17T17:49:33.350Z,65.49
2019-03-17T17:50:33.340Z,65.49
2019-03-17T17:51:33.354Z,65.08
2019-03-17T17:52:33.314Z,65.56
2019-03-17T17:53:33.302Z,65.98
2019-03-17T17:54:33.292Z,65.28
2019-03-17T17:55:33.306Z,65.25
2019-03-17T17:56:33.280Z,65.59
2019-03-17T17:57:33.253Z,65.49
2019-03-17T17:58:33.240Z,65.08
2019-03-17T17:59:33.249Z,65.70
2019-03-17T18:00:33.221Z,66.31
2019-03-17T18:01:33.221Z,65.94
2019-03-17T18:02:33.195Z,65.91
2019-03-17T18:03:33.186Z,66.11
2019-03-17T18:04:33.175Z,66.83
2019-03-17T18:05:33.179Z,65.94
2019-03-17T18:06:33.179Z,66.42
2019-03-17T18:07:33.152Z,67.17
2019-03-17T18:08:33.130Z,65.42
2019-03-17T18:09:33.122Z,65.94
2019-03-17T18:10:33.106Z,65.59
2019-03-17T18:11:33.105Z,65.52
2019-03-17T18:12:33.084Z,66.21
2019-03-17T18:13:33.072Z,66.14
2019-03-17T18:14:33.060Z,66.24
2019-03-17T18:15:33.048Z,66.14
2019-03-17T18:16:33.046Z,66.45
2019-03-17T18:17:33.034Z,66.66
2019-03-17T18:18:33.015Z,65.94
2019-03-17T18:19:33.006Z,66.31
2019-03-17T18:20:32.995Z,67.27
2019-03-17T18:21:32.991Z,68.41
2019-03-17T18:22:32.972Z,69.54
2019-03-17T18:23:32.960Z,70.78
2019-03-17T18:24:32.962Z,72.02
2019-03-17T18:25:32.936Z,72.99
2019-03-17T18:26:33.109Z,73.43
2019-03-17T18:27:32.917Z,73.67
2019-03-17T18:28:32.903Z,74.50
2019-03-17T18:29:32.908Z,74.95
2019-03-17T18:30:32.893Z,75.70
2019-03-17T18:31:32.880Z,76.57
2019-03-17T18:32:32.862Z,76.57
2019-03-17T18:33:32.848Z,76.67
2019-03-17T18:34:32.857Z,76.67
2019-03-17T18:35:32.828Z,77.95
2019-03-17T18:36:32.861Z,78.16
2019-03-17T18:37:32.809Z,78.57
2019-03-17T18:38:32.824Z,78.57
2019-03-17T18:39:32.786Z,78.36
2019-03-17T18:40:32.769Z,78.26
2019-03-17T18:41:32.769Z,78.40
2019-03-17T18:42:33.500Z,78.19
2019-03-17T18:43:32.754Z,78.92
2019-03-17T18:44:32.726Z,78.92
2019-03-17T18:45:32.719Z,78.92
2019-03-17T18:46:32.745Z,78.19
2019-03-17T18:47:32.696Z,79.02
2019-03-17T18:48:32.680Z,79.02
2019-03-17T18:49:32.672Z,79.02
2019-03-17T18:50:32.660Z,79.02
2019-03-17T18:51:32.658Z,79.02
2019-03-17T18:52:32.649Z,78.81
2019-03-17T18:53:32.629Z,80.36
2019-03-17T18:54:32.616Z,79.58
2019-03-17T18:55:32.617Z,79.64
2019-03-17T18:56:32.592Z,79.02
2019-03-17T18:57:32.592Z,78.85
2019-03-17T18:58:32.574Z,79.13
2019-03-17T18:59:32.557Z,79.64
2019-03-17T19:00:32.574Z,79.16
2019-03-17T19:01:32.534Z,79.44
2019-03-17T19:02:32.536Z,79.06
2019-03-17T19:03:32.514Z,79.02
2019-03-17T19:04:32.506Z,78.75
2019-03-17T19:05:32.491Z,80.40
2019-03-17T19:06:32.480Z,80.30
2019-03-17T19:07:32.476Z,80.51
2019-03-17T19:08:32.458Z,79.06
2019-03-17T19:09:32.495Z,78.99
2019-03-17T19:10:32.443Z,78.96
2019-03-17T19:11:32.425Z,79.16
2019-03-17T19:12:44.603Z,79.16
2019-03-17T19:13:33.403Z,79.47
2019-03-17T19:14:32.392Z,79.58
2019-03-17T19:15:32.378Z,80.30
2019-03-17T19:16:32.369Z,80.19
2019-03-17T19:17:32.374Z,79.27
2019-03-17T19:18:32.355Z,79.37
2019-03-17T19:19:32.341Z,79.37
2019-03-17T19:20:32.328Z,79.16
2019-03-17T19:21:32.322Z,78.75
2019-03-17T19:22:32.316Z,79.06
2019-03-17T19:23:32.294Z,79.16
2019-03-17T19:24:32.281Z,79.16
2019-03-17T19:25:32.273Z,79.16
2019-03-17T19:26:32.266Z,79.41
2019-03-17T19:27:32.273Z,79.61
2019-03-17T19:28:32.235Z,79.78
2019-03-17T19:29:32.228Z,80.33
2019-03-17T19:30:32.230Z,80.75
2019-03-17T19:31:32.203Z,79.99
2019-03-17T19:32:32.199Z,80.40
2019-03-17T19:33:32.200Z,79.78
2019-03-17T19:34:32.209Z,81.02
2019-03-17T19:35:32.160Z,80.02
2019-03-17T19:36:32.145Z,79.78
2019-03-17T19:37:32.146Z,80.09
2019-03-17T19:38:32.128Z,80.92
2019-03-17T19:39:32.113Z,80.40
2019-03-17T19:40:32.102Z,80.85
2019-03-17T19:41:32.096Z,79.78
2019-03-17T19:42:32.106Z,79.88
2019-03-17T19:43:32.072Z,79.88
2019-03-17T19:44:32.061Z,80.54
2019-03-17T19:45:32.052Z,80.54
2019-03-17T19:46:32.038Z,80.96
2019-03-17T19:47:32.041Z,79.92
2019-03-17T19:48:32.018Z,80.23
2019-03-17T19:49:32.003Z,80.54
2019-03-17T19:50:31.997Z,80.02
2019-03-17T19:51:32.509Z,79.75
2019-03-17T19:52:31.982Z,80.33
2019-03-17T19:53:31.958Z,80.54
2019-03-17T19:54:32.102Z,80.54
2019-03-17T19:55:31.950Z,80.65
2019-03-17T19:56:31.925Z,80.79
2019-03-17T19:57:31.922Z,80.06
2019-03-17T19:58:31.905Z,80.13
2019-03-17T19:59:31.892Z,80.06
2019-03-17T20:00:31.888Z,79.71
2019-03-17T20:01:31.867Z,80.06
2019-03-17T20:02:31.871Z,80.54
2019-03-17T20:03:31.848Z,80.33
2019-03-17T20:04:35.184Z,79.61
2019-03-17T20:05:31.824Z,80.27
2019-03-17T20:06:31.815Z,80.13
2019-03-17T20:07:31.804Z,79.71
2019-03-17T20:08:31.970Z,79.75
2019-03-17T20:09:31.790Z,79.55
2019-03-17T20:10:31.767Z,79.34
2019-03-17T20:11:31.761Z,79.61
2019-03-17T20:12:31.749Z,80.58
2019-03-17T20:13:31.754Z,79.51
2019-03-17T20:14:31.728Z,79.44
2019-03-17T20:15:31.720Z,79.75
2019-03-17T20:16:31.703Z,79.75
2019-03-17T20:17:31.768Z,79.75
2019-03-17T20:18:31.689Z,80.37
2019-03-17T20:19:31.687Z,79.24
2019-03-17T20:20:31.668Z,79.24
2019-03-17T20:21:31.693Z,79.34
2019-03-17T20:22:31.644Z,78.82
2019-03-17T20:23:31.637Z,79.13
2019-03-17T20:24:31.615Z,79.65
2019-03-17T20:25:31.605Z,79.44
2019-03-17T20:26:31.594Z,79.44
2019-03-17T20:27:31.581Z,79.75
2019-03-17T20:28:31.582Z,78.86
2019-03-17T20:29:31.570Z,79.13
2019-03-17T20:30:31.565Z,78.82
2019-03-17T20:31:31.538Z,79.44
2019-03-17T20:32:31.603Z,80.68
2019-03-17T20:33:31.589Z,79.44
2019-03-17T20:34:31.521Z,78.72
2019-03-17T20:35:31.497Z,79.34
2019-03-17T20:36:31.520Z,79.13
2019-03-17T20:37:31.469Z,79.03
2019-03-17T20:38:31.517Z,79.06
2019-03-17T20:39:31.457Z,79.13
2019-03-17T20:40:31.441Z,78.61
2019-03-17T20:41:31.430Z,78.65
2019-03-17T20:42:31.415Z,78.34
2019-03-17T20:43:34.772Z,78.75
2019-03-17T20:44:31.423Z,78.30
2019-03-17T20:45:31.383Z,78.55
2019-03-17T20:46:31.377Z,78.65
2019-03-17T20:47:31.358Z,78.65
2019-03-17T20:48:31.362Z,78.75
2019-03-17T20:49:31.344Z,78.44
2019-03-17T20:50:31.328Z,78.61
2019-03-17T20:51:31.317Z,79.06
2019-03-17T20:52:31.305Z,79.17
2019-03-17T20:53:31.309Z,78.65
2019-03-17T20:54:31.287Z,78.44
2019-03-17T20:55:31.288Z,78.55
2019-03-17T20:56:31.258Z,78.86
2019-03-17T20:57:31.254Z,78.75
2019-03-17T20:58:31.244Z,78.65
2019-03-17T20:59:31.271Z,78.65
2019-03-17T21:00:31.216Z,78.55
2019-03-17T21:01:31.201Z,78.65
2019-03-17T21:02:31.225Z,78.65
2019-03-17T21:03:31.193Z,78.34
2019-03-17T21:04:31.173Z,78.03
2019-03-17T21:05:31.161Z,78.41
2019-03-17T21:06:31.155Z,77.61
2019-03-17T21:07:31.161Z,77.99
2019-03-17T21:08:31.145Z,78.03
2019-03-17T21:09:31.128Z,77.78
2019-03-17T21:10:31.103Z,78.82
2019-03-17T21:11:31.091Z,78.75
2019-03-17T21:12:31.099Z,78.13
2019-03-17T21:13:31.083Z,78.13
2019-03-17T21:14:31.062Z,78.75
2019-03-17T21:15:31.049Z,78.34
2019-03-17T21:16:31.043Z,77.82
2019-03-17T21:17:31.027Z,77.72
2019-03-17T21:18:31.065Z,78.44
2019-03-17T21:19:31.007Z,78.03
2019-03-17T21:20:31.000Z,77.92
2019-03-17T21:21:30.984Z,78.44
2019-03-17T21:22:30.976Z,77.72
2019-03-17T21:23:30.994Z,78.78
2019-03-17T21:24:30.966Z,78.27
2019-03-17T21:25:30.947Z,78.68
2019-03-17T21:26:30.989Z,78.58
2019-03-17T21:27:30.918Z,78.27
2019-03-17T21:28:30.907Z,78.13
2019-03-17T21:29:30.900Z,78.06
2019-03-17T21:30:30.881Z,78.68
2019-03-17T21:31:30.872Z,78.65
2019-03-17T21:32:30.861Z,78.58
2019-03-17T21:33:30.850Z,78.75
2019-03-17T21:34:30.847Z,78.68
2019-03-17T21:35:30.829Z,78.58
2019-03-17T21:36:30.822Z,78.37
2019-03-17T21:37:30.800Z,78.75
2019-03-17T21:38:30.794Z,78.75
2019-03-17T21:39:30.795Z,78.47
2019-03-17T21:40:30.769Z,77.82
2019-03-17T21:41:30.759Z,78.34
2019-03-17T21:42:30.748Z,77.92
2019-03-17T21:43:30.742Z,77.61
2019-03-17T21:44:30.741Z,76.89
2019-03-17T21:45:30.713Z,77.06
2019-03-17T21:46:30.725Z,76.99
2019-03-17T21:47:30.710Z,76.95
2019-03-17T21:48:30.684Z,76.89
2019-03-17T21:49:30.677Z,76.75
2019-03-17T21:50:30.658Z,76.95
2019-03-17T21:51:30.648Z,76.75
2019-03-17T21:52:30.637Z,76.33
2019-03-17T21:53:30.624Z,76.64
2019-03-17T21:54:30.634Z,76.33
2019-03-17T21:55:30.605Z,76.43
2019-03-17T21:56:30.591Z,76.23
2019-03-17T21:57:30.580Z,76.75
2019-03-17T21:58:30.571Z,76.85
2019-03-17T21:59:30.569Z,76.75
2019-03-17T22:00:30.550Z,76.95
2019-03-17T22:01:30.537Z,77.37
2019-03-17T22:02:30.524Z,77.64
2019-03-17T22:03:30.518Z,77.54
2019-03-17T22:04:30.512Z,77.95
2019-03-17T22:05:30.493Z,78.27
2019-03-17T22:06:30.481Z,77.64
2019-03-17T22:07:30.473Z,77.44
2019-03-17T22:08:30.469Z,78.27
2019-03-17T22:09:30.455Z,78.78
2019-03-17T22:10:30.464Z,79.51
2019-03-17T22:11:30.427Z,80.09
2019-03-17T22:12:30.445Z,79.47
2019-03-17T22:13:30.405Z,78.96
2019-03-17T22:14:30.422Z,79.58
2019-03-17T22:15:30.379Z,80.33
2019-03-17T22:16:30.371Z,79.99
2019-03-17T22:17:30.361Z,79.68
2019-03-17T22:18:30.348Z,80.44
2019-03-17T22:19:30.356Z,78.75
2019-03-17T22:20:30.329Z,79.06
2019-03-17T22:21:30.314Z,78.68
2019-03-17T22:22:30.307Z,78.99
2019-03-17T22:23:30.294Z,78.47
2019-03-17T22:24:30.296Z,78.99
2019-03-17T22:25:30.270Z,78.99
2019-03-17T22:26:30.307Z,78.78
2019-03-17T22:27:30.252Z,79.10
2019-03-17T22:28:30.237Z,78.78
2019-03-17T22:29:30.234Z,78.78
2019-03-17T22:30:30.212Z,79.44
2019-03-17T22:31:30.248Z,78.68
2019-03-17T22:32:30.195Z,79.13
2019-03-17T22:33:30.180Z,79.03
2019-03-17T22:34:30.185Z,79.75
2019-03-17T22:35:30.157Z,79.75
2019-03-17T22:36:30.146Z,80.37
2019-03-17T22:37:30.147Z,79.75
2019-03-17T22:38:30.125Z,79.75
2019-03-17T22:39:30.117Z,79.96
2019-03-17T22:40:30.124Z,80.06
2019-03-17T22:41:30.092Z,80.58
2019-03-17T22:42:30.086Z,79.69
2019-03-17T22:43:30.073Z,80.16
2019-03-17T22:44:30.058Z,80.10
2019-03-17T22:45:30.056Z,80.73
2019-03-17T22:46:30.041Z,81.04
2019-03-17T22:47:30.025Z,80.31
2019-03-17T22:48:30.015Z,80.31
2019-03-17T22:49:30.005Z,80.73
2019-03-17T22:50:30.001Z,80.52
2019-03-17T22:51:29.992Z,81.45
2019-03-17T22:52:29.969Z,81.66
2019-03-17T22:53:29.967Z,81.45
2019-03-17T22:54:29.970Z,81.80
2019-03-17T22:55:29.969Z,81.66
2019-03-17T22:56:29.931Z,81.07
2019-03-17T22:57:29.915Z,81.80
2019-03-17T22:58:29.911Z,82.11
2019-03-17T22:59:29.897Z,82.42
2019-03-17T23:00:29.906Z,82.35
2019-03-17T23:01:29.870Z,82.53
2019-03-17T23:02:29.865Z,82.84
2019-03-17T23:03:29.936Z,83.04
2019-03-17T23:04:29.839Z,82.98
2019-03-17T23:05:29.836Z,82.98
2019-03-17T23:06:29.813Z,82.87
2019-03-17T23:07:29.803Z,83.04
2019-03-17T23:08:29.803Z,83.39
2019-03-17T23:09:29.784Z,83.39
2019-03-17T23:10:29.845Z,83.08
2019-03-17T23:11:29.761Z,82.98
2019-03-17T23:12:29.748Z,82.98
2019-03-17T23:13:29.742Z,82.98
2019-03-17T23:14:36.761Z,82.87
2019-03-17T23:15:30.721Z,82.98
2019-03-17T23:16:29.703Z,82.98
2019-03-17T23:17:29.695Z,82.87
2019-03-17T23:18:29.682Z,83.50
2019-03-17T23:19:29.669Z,83.39
2019-03-17T23:20:29.669Z,83.50
2019-03-17T23:21:29.680Z,82.98
2019-03-17T23:22:29.636Z,82.77
2019-03-17T23:23:29.629Z,82.77
2019-03-17T23:24:29.652Z,82.98
2019-03-17T23:25:29.632Z,82.98
2019-03-17T23:26:29.591Z,82.98
2019-03-17T23:27:29.590Z,82.98
2019-03-17T23:28:29.569Z,83.08
2019-03-17T23:29:29.587Z,82.98
2019-03-17T23:30:29.585Z,83.60
2019-03-17T23:31:29.537Z,82.67
2019-03-17T23:32:29.552Z,83.29
2019-03-17T23:33:29.520Z,82.87
2019-03-17T23:34:29.503Z,83.70
2019-03-17T23:35:29.517Z,83.91
2019-03-17T23:36:29.491Z,84.19
2019-03-17T23:37:29.475Z,83.29
2019-03-17T23:38:29.462Z,83.60
2019-03-17T23:39:29.453Z,82.98
2019-03-17T23:40:29.497Z,83.39
2019-03-17T23:41:29.425Z,82.56
2019-03-17T23:42:29.427Z,82.87
2019-03-17T23:43:29.404Z,82.67
2019-03-17T23:44:29.392Z,82.77
2019-03-17T23:45:29.391Z,82.77
2019-03-17T23:46:29.368Z,82.15
2019-03-17T23:47:29.358Z,82.11
2019-03-17T23:48:29.346Z,81.63
2019-03-17T23:49:29.338Z,81.90
2019-03-17T23:50:29.335Z,81.73
2019-03-17T23:51:29.317Z,81.84
2019-03-17T23:52:29.302Z,81.32
2019-03-17T23:53:29.293Z,81.21
2019-03-17T23:54:29.283Z,81.28
2019-03-17T23:55:29.279Z,81.11
2019-03-17T23:56:29.268Z,81.28
2019-03-17T23:57:29.255Z,81.28
2019-03-17T23:58:29.239Z,80.76
2019-03-17T23:59:29.236Z,81.18
